createdAt,value
2022-09-16T00:00:57.393Z,1.33
2022-09-16T00:03:24.657Z,1.00
2022-09-16T00:05:53.457Z,1.50
2022-09-16T00:08:22.735Z,1.27
2022-09-16T00:10:50.534Z,1.00
2022-09-16T00:13:18.750Z,1.10
2022-09-16T00:15:50.686Z,0.93
2022-09-16T00:18:18.263Z,1.10
2022-09-16T00:20:52.182Z,0.93
2022-09-16T00:23:20.015Z,1.50
2022-09-16T00:25:55.135Z,1.07
2022-09-16T00:28:23.234Z,1.20
2022-09-16T00:30:50.999Z,1.17
2022-09-16T00:33:19.745Z,1.10
2022-09-16T00:35:47.716Z,1.40
2022-09-16T00:38:15.134Z,1.20
2022-09-16T00:40:48.311Z,1.30
2022-09-16T00:43:19.422Z,1.10
2022-09-16T00:45:57.078Z,1.20
2022-09-16T00:48:29.873Z,1.33
2022-09-16T00:51:05.249Z,1.43
2022-09-16T00:53:42.997Z,1.20
2022-09-16T00:56:17.254Z,1.40
2022-09-16T00:59:11.088Z,1.40
2022-09-16T01:01:39.701Z,1.63
2022-09-16T01:04:32.654Z,1.50
2022-09-16T01:07:00.596Z,1.50
2022-09-16T01:09:30.259Z,1.60
2022-09-16T01:11:57.353Z,1.43
2022-09-16T01:14:46.231Z,1.63
2022-09-16T01:17:45.726Z,1.50
2022-09-16T01:21:01.567Z,1.50
2022-09-16T01:23:49.709Z,1.33
2022-09-16T01:26:51.008Z,1.27
2022-09-16T01:29:55.886Z,1.30
2022-09-16T01:32:46.464Z,1.63
2022-09-16T01:35:45.851Z,1.37
2022-09-16T01:38:31.351Z,1.50
2022-09-16T01:41:13.770Z,1.40
2022-09-16T01:44:01.249Z,1.43
2022-09-16T01:46:41.341Z,1.13
2022-09-16T01:49:58.732Z,1.20
2022-09-16T01:52:55.851Z,1.10
2022-09-16T01:56:06.127Z,1.30
2022-09-16T01:58:53.872Z,1.17
2022-09-16T02:01:36.721Z,1.30
2022-09-16T02:04:16.335Z,1.20
2022-09-16T02:06:49.253Z,1.37
2022-09-16T02:09:41.586Z,1.30
2022-09-16T02:12:18.324Z,1.23
2022-09-16T02:14:49.088Z,1.30
2022-09-16T02:17:22.291Z,1.30
2022-09-16T02:19:57.391Z,1.10
2022-09-16T02:22:44.946Z,1.03
2022-09-16T02:25:15.842Z,0.90
2022-09-16T02:27:46.945Z,1.20
2022-09-16T02:30:21.760Z,1.20
2022-09-16T02:33:02.580Z,1.23
2022-09-16T02:35:34.200Z,1.00
2022-09-16T02:38:14.149Z,1.10
2022-09-16T02:40:54.389Z,1.20
2022-09-16T02:43:21.887Z,1.13
2022-09-16T02:46:20.032Z,1.20
2022-09-16T02:49:17.218Z,1.30
2022-09-16T02:52:43.244Z,0.97
2022-09-16T02:55:45.927Z,1.37
2022-09-16T02:58:13.045Z,0.90
2022-09-16T03:00:49.802Z,1.20
2022-09-16T03:03:17.694Z,0.97
2022-09-16T03:06:06.478Z,1.20
2022-09-16T03:08:35.841Z,1.60
2022-09-16T03:11:30.479Z,1.57
2022-09-16T03:14:07.351Z,1.40
2022-09-16T03:16:59.783Z,1.30
2022-09-16T03:19:59.011Z,1.67
2022-09-16T03:22:41.270Z,1.50
2022-09-16T03:25:41.819Z,1.70
2022-09-16T03:28:44.703Z,1.43
2022-09-16T03:31:40.480Z,1.53
2022-09-16T03:34:20.073Z,1.73
2022-09-16T03:37:00.335Z,1.47
2022-09-16T03:39:27.709Z,1.20
2022-09-16T03:42:00.012Z,1.30
2022-09-16T03:44:40.225Z,1.90
2022-09-16T03:47:08.439Z,1.60
2022-09-16T03:49:36.265Z,1.20
2022-09-16T03:52:08.458Z,1.50
2022-09-16T03:54:37.238Z,1.57
2022-09-16T03:57:05.709Z,1.40
2022-09-16T03:59:32.960Z,1.30
2022-09-16T04:02:00.266Z,1.50
2022-09-16T04:04:27.628Z,1.50
2022-09-16T04:06:54.612Z,1.40
2022-09-16T04:09:21.692Z,1.27
2022-09-16T04:11:48.704Z,1.40
2022-09-16T04:14:16.214Z,1.30
2022-09-16T04:16:45.389Z,1.60
2022-09-16T04:19:14.470Z,1.30
2022-09-16T04:21:42.918Z,1.20
2022-09-16T04:24:13.203Z,1.40
2022-09-16T04:26:41.903Z,1.30
2022-09-16T04:29:09.364Z,1.50
2022-09-16T04:31:36.477Z,1.20
2022-09-16T04:34:05.001Z,1.20
2022-09-16T04:36:32.677Z,1.57
2022-09-16T04:38:59.898Z,1.60
2022-09-16T04:41:27.464Z,1.33
2022-09-16T04:43:58.305Z,1.53
2022-09-16T04:46:28.592Z,1.53
2022-09-16T04:48:57.259Z,1.47
2022-09-16T04:51:27.314Z,1.53
2022-09-16T04:53:59.160Z,2.50
2022-09-16T04:56:31.320Z,1.93
2022-09-16T04:59:05.050Z,1.80
2022-09-16T05:01:35.734Z,1.50
2022-09-16T05:04:05.204Z,1.57
2022-09-16T05:06:36.914Z,1.40
2022-09-16T05:09:04.790Z,1.57
2022-09-16T05:11:37.102Z,1.60
2022-09-16T05:14:08.422Z,1.50
2022-09-16T05:16:35.661Z,2.50
2022-09-16T05:19:04.986Z,1.53
2022-09-16T05:21:36.149Z,1.77
2022-09-16T05:24:10.073Z,1.80
2022-09-16T05:26:42.008Z,1.80
2022-09-16T05:29:15.518Z,1.40
2022-09-16T05:31:47.193Z,1.50
2022-09-16T05:34:18.617Z,1.50
2022-09-16T05:36:48.289Z,1.27
2022-09-16T05:39:23.615Z,1.53
2022-09-16T05:41:59.342Z,1.30
2022-09-16T05:44:28.780Z,1.40
2022-09-16T05:46:56.309Z,1.10
2022-09-16T05:49:23.907Z,1.40
2022-09-16T05:51:52.015Z,1.50
2022-09-16T05:54:19.887Z,1.43
2022-09-16T05:56:47.996Z,1.47
2022-09-16T05:59:16.921Z,1.30
2022-09-16T06:01:45.207Z,1.40
2022-09-16T06:04:15.297Z,1.57
2022-09-16T06:06:47.327Z,1.50
2022-09-16T06:09:21.280Z,1.40
2022-09-16T06:11:53.174Z,1.20
2022-09-16T06:14:23.079Z,1.40
2022-09-16T06:16:50.265Z,1.37
2022-09-16T06:19:20.427Z,1.30
2022-09-16T06:21:47.504Z,1.50
2022-09-16T06:24:17.011Z,1.60
2022-09-16T06:26:45.837Z,1.47
2022-09-16T06:29:14.229Z,1.70
2022-09-16T06:31:42.027Z,1.43
2022-09-16T06:34:18.460Z,2.00
2022-09-16T06:36:47.112Z,2.10
2022-09-16T06:39:17.176Z,2.03
2022-09-16T06:41:44.685Z,2.07
2022-09-16T06:44:11.754Z,1.90
2022-09-16T06:46:38.928Z,2.00
2022-09-16T06:49:06.747Z,1.97
2022-09-16T06:51:34.849Z,2.33
2022-09-16T06:54:06.670Z,1.83
2022-09-16T06:56:37.487Z,1.93
2022-09-16T06:59:05.247Z,1.83
2022-09-16T07:01:33.878Z,1.60
2022-09-16T07:04:10.361Z,1.30
2022-09-16T07:07:07.635Z,1.50
2022-09-16T07:09:24.961Z,1.87
2022-09-16T07:11:51.946Z,1.80
2022-09-16T07:14:18.970Z,1.60
2022-09-16T07:16:45.961Z,1.40
2022-09-16T07:19:12.969Z,2.10
2022-09-16T07:21:41.538Z,1.60
2022-09-16T07:24:13.199Z,1.70
2022-09-16T07:26:42.295Z,1.33
2022-09-16T07:29:15.152Z,1.50
2022-09-16T07:31:42.482Z,1.43
2022-09-16T07:34:12.546Z,1.50
2022-09-16T07:36:49.022Z,1.50
2022-09-16T07:39:19.147Z,1.13
2022-09-16T07:41:48.446Z,1.40
2022-09-16T07:44:18.869Z,1.20
2022-09-16T07:46:46.336Z,1.47
2022-09-16T07:49:15.215Z,1.97
2022-09-16T07:51:43.381Z,1.73
2022-09-16T07:54:15.461Z,1.80
2022-09-16T07:56:44.556Z,1.37
2022-09-16T07:59:19.321Z,1.40
2022-09-16T08:01:50.848Z,1.20
2022-09-16T08:04:20.270Z,1.20
2022-09-16T08:06:48.232Z,1.10
2022-09-16T08:12:05.138Z,1.80
2022-09-16T08:14:33.286Z,1.57
2022-09-16T08:17:00.945Z,1.37
2022-09-16T08:19:27.908Z,1.57
2022-09-16T08:21:54.841Z,1.40
2022-09-16T08:24:21.982Z,1.23
2022-09-16T08:26:49.041Z,1.30
2022-09-16T08:29:16.677Z,1.43
2022-09-16T08:31:44.097Z,1.20
2022-09-16T08:34:11.124Z,1.40
2022-09-16T08:36:38.114Z,1.10
2022-09-16T08:39:05.241Z,1.50
2022-09-16T08:42:05.551Z,1.10
2022-09-16T08:45:05.651Z,1.13
2022-09-16T08:47:42.637Z,1.40
2022-09-16T08:50:25.984Z,1.00
2022-09-16T08:52:57.676Z,1.17
2022-09-16T08:55:40.870Z,0.90
2022-09-16T08:58:27.625Z,1.50
2022-09-16T09:01:05.122Z,1.00
2022-09-16T09:03:46.026Z,0.90
2022-09-16T09:06:59.604Z,1.50
2022-09-16T09:09:49.200Z,1.00
2022-09-16T09:12:49.380Z,1.20
2022-09-16T09:15:54.689Z,1.13
2022-09-16T09:18:44.057Z,1.10
2022-09-16T09:21:50.106Z,1.27
2022-09-16T09:24:28.807Z,0.97
2022-09-16T09:27:14.414Z,1.20
2022-09-16T09:29:53.231Z,1.00
2022-09-16T09:32:50.211Z,1.00
2022-09-16T09:36:05.457Z,1.30
2022-09-16T09:38:58.716Z,1.20
2022-09-16T09:41:36.691Z,1.40
2022-09-16T09:44:35.354Z,1.00
2022-09-16T09:47:12.600Z,0.93
2022-09-16T09:49:50.551Z,1.03
2022-09-16T09:52:28.048Z,0.90
2022-09-16T09:55:00.890Z,1.10
2022-09-16T09:57:38.266Z,1.00
2022-09-16T10:00:22.090Z,1.00
2022-09-16T10:02:50.191Z,1.07
2022-09-16T10:05:28.607Z,1.40
2022-09-16T10:08:02.613Z,1.20
2022-09-16T10:10:34.850Z,1.50
2022-09-16T10:13:13.229Z,1.00
2022-09-16T10:15:41.375Z,0.90
2022-09-16T10:18:32.341Z,0.90
2022-09-16T10:21:12.838Z,0.87
2022-09-16T10:23:40.376Z,1.10
2022-09-16T10:26:20.099Z,1.83
2022-09-16T10:28:58.439Z,1.20
2022-09-16T10:31:37.662Z,1.30
2022-09-16T10:34:21.926Z,1.07
2022-09-16T10:37:06.055Z,0.90
2022-09-16T10:39:34.182Z,0.97
2022-09-16T10:42:04.298Z,1.00
2022-09-16T10:44:36.536Z,1.30
2022-09-16T10:47:25.422Z,1.30
2022-09-16T10:50:02.083Z,1.30
2022-09-16T10:52:32.472Z,1.50
2022-09-16T10:55:20.427Z,1.60
2022-09-16T10:57:48.050Z,1.40
2022-09-16T11:00:24.366Z,1.70
2022-09-16T11:03:25.297Z,1.40
2022-09-16T11:06:27.579Z,1.60
2022-09-16T11:09:31.420Z,1.70
2022-09-16T11:12:44.237Z,1.30
2022-09-16T11:15:30.534Z,0.90
2022-09-16T11:18:19.125Z,1.20
2022-09-16T11:21:24.269Z,1.40
2022-09-16T11:24:25.527Z,1.33
2022-09-16T11:27:15.324Z,1.10
2022-09-16T11:30:04.354Z,1.07
2022-09-16T11:32:35.876Z,1.00
2022-09-16T11:35:17.435Z,0.77
2022-09-16T11:37:56.126Z,1.00
2022-09-16T11:40:39.009Z,1.03
2022-09-16T11:43:27.595Z,1.10
2022-09-16T11:46:19.181Z,1.33
2022-09-16T11:49:04.498Z,1.07
2022-09-16T11:51:56.478Z,1.10
2022-09-16T11:55:00.855Z,1.13
2022-09-16T11:57:35.470Z,0.93
2022-09-16T12:00:10.570Z,1.20
2022-09-16T12:02:46.644Z,1.00
2022-09-16T12:05:14.173Z,1.00
2022-09-16T12:08:09.698Z,1.23
2022-09-16T12:10:49.336Z,1.43
2022-09-16T12:13:37.267Z,1.13
2022-09-16T12:16:15.928Z,1.10
2022-09-16T12:18:57.882Z,0.70
2022-09-16T12:21:37.815Z,1.00
2022-09-16T12:24:16.382Z,0.90
2022-09-16T12:27:01.909Z,0.63
2022-09-16T12:29:59.250Z,0.60
2022-09-16T12:32:55.803Z,0.77
2022-09-16T12:35:44.609Z,0.80
2022-09-16T12:38:18.856Z,1.07
2022-09-16T12:41:41.613Z,0.90
2022-09-16T12:44:34.872Z,0.77
2022-09-16T12:47:38.918Z,0.90
2022-09-16T12:50:16.950Z,0.90
2022-09-16T12:53:07.433Z,0.87
2022-09-16T12:56:06.960Z,0.90
2022-09-16T12:58:49.406Z,1.00
2022-09-16T13:01:31.453Z,0.97
2022-09-16T13:04:08.910Z,1.03
2022-09-16T13:06:40.666Z,1.17
2022-09-16T13:09:22.559Z,1.00
2022-09-16T13:12:36.412Z,1.10
2022-09-16T13:14:54.974Z,1.10
2022-09-16T13:17:37.993Z,0.80
2022-09-16T13:20:30.055Z,1.00
2022-09-16T13:23:08.926Z,0.80
2022-09-16T13:25:59.153Z,0.93
2022-09-16T13:28:32.686Z,0.80
2022-09-16T13:31:28.460Z,1.20
2022-09-16T13:33:59.178Z,1.00
2022-09-16T13:36:27.033Z,1.00
2022-09-16T13:38:57.472Z,1.10
2022-09-16T13:41:41.914Z,0.93
2022-09-16T13:44:30.545Z,1.20
2022-09-16T13:47:34.068Z,0.90
2022-09-16T13:50:24.398Z,0.80
2022-09-16T13:52:53.103Z,0.90
2022-09-16T13:55:24.707Z,0.90
2022-09-16T13:58:00.222Z,0.80
2022-09-16T14:00:50.913Z,1.00
2022-09-16T14:03:47.557Z,0.80
2022-09-16T14:06:27.007Z,1.00
2022-09-16T14:09:00.372Z,1.20
2022-09-16T14:11:41.628Z,0.90
2022-09-16T14:14:36.106Z,0.80
2022-09-16T14:17:13.486Z,0.70
2022-09-16T14:19:42.668Z,1.20
2022-09-16T14:22:23.001Z,0.80
2022-09-16T14:25:00.565Z,0.73
2022-09-16T14:27:37.707Z,0.90
2022-09-16T14:30:17.898Z,0.83
2022-09-16T14:32:47.629Z,1.00
2022-09-16T14:35:24.809Z,0.70
2022-09-16T14:37:56.624Z,0.63
2022-09-16T14:40:27.463Z,0.80
2022-09-16T14:43:07.938Z,0.67
2022-09-16T14:45:37.529Z,0.70
2022-09-16T14:48:09.633Z,0.57
2022-09-16T14:50:40.018Z,0.73
2022-09-16T14:53:35.453Z,0.63
2022-09-16T14:56:04.623Z,0.70
2022-09-16T14:58:33.823Z,0.77
2022-09-16T15:01:10.605Z,0.60
2022-09-16T15:03:42.583Z,0.60
2022-09-16T15:06:16.344Z,0.73
2022-09-16T15:08:58.607Z,0.80
2022-09-16T15:11:47.687Z,0.80
2022-09-16T15:14:16.128Z,0.70
2022-09-16T15:16:49.575Z,0.70
2022-09-16T15:19:31.423Z,0.70
2022-09-16T15:21:59.611Z,0.90
2022-09-16T15:24:32.052Z,0.90
2022-09-16T15:27:01.611Z,0.70
2022-09-16T15:29:35.683Z,0.70
2022-09-16T15:32:19.851Z,0.60
2022-09-16T15:34:47.418Z,0.87
2022-09-16T15:37:31.156Z,0.80
2022-09-16T15:40:20.841Z,0.70
2022-09-16T15:43:00.675Z,0.97
2022-09-16T15:45:28.707Z,1.00
2022-09-16T15:48:02.725Z,0.83
2022-09-16T15:50:40.527Z,0.90
2022-09-16T15:53:14.125Z,1.00
2022-09-16T15:55:49.712Z,1.30
2022-09-16T15:58:32.759Z,1.30
2022-09-16T16:01:00.743Z,1.10
2022-09-16T16:03:32.283Z,0.90
2022-09-16T16:06:00.520Z,0.90
2022-09-16T16:08:52.025Z,1.10
2022-09-16T16:11:22.157Z,1.00
2022-09-16T16:13:53.138Z,1.23
2022-09-16T16:16:21.129Z,1.27
2022-09-16T16:18:48.609Z,1.00
2022-09-16T16:21:16.777Z,1.13
2022-09-16T16:23:44.632Z,1.00
2022-09-16T16:26:12.400Z,0.90
2022-09-16T16:28:39.813Z,0.90
2022-09-16T16:31:15.585Z,0.80
2022-09-16T16:33:47.774Z,1.03
2022-09-16T16:36:17.038Z,1.23
2022-09-16T16:38:45.570Z,0.97
2022-09-16T16:41:19.029Z,1.30
2022-09-16T16:43:46.442Z,1.40
2022-09-16T16:46:13.885Z,1.20
2022-09-16T16:48:41.333Z,1.40
2022-09-16T16:51:12.851Z,1.30
2022-09-16T16:53:40.745Z,1.23
2022-09-16T16:56:15.112Z,1.20
2022-09-16T16:58:43.499Z,1.10
2022-09-16T17:01:13.966Z,1.50
2022-09-16T17:03:43.164Z,1.50
2022-09-16T17:06:11.101Z,1.30
2022-09-16T17:08:38.982Z,1.33
2022-09-16T17:11:17.948Z,1.63
2022-09-16T17:13:49.263Z,1.67
2022-09-16T17:16:20.522Z,1.30
2022-09-16T17:18:48.510Z,1.63
2022-09-16T17:21:33.663Z,1.30
2022-09-16T17:24:01.297Z,1.60
2022-09-16T17:26:29.026Z,1.33
2022-09-16T17:29:01.239Z,1.77
2022-09-16T17:31:34.443Z,1.50
2022-09-16T17:34:05.464Z,1.87
2022-09-16T17:36:34.982Z,1.80
2022-09-16T17:39:08.061Z,1.60
2022-09-16T17:41:35.942Z,1.90
2022-09-16T17:44:08.194Z,1.80
2022-09-16T17:46:36.021Z,1.97
2022-09-16T17:49:08.674Z,1.43
2022-09-16T17:51:37.095Z,1.70
2022-09-16T17:54:04.881Z,1.63
2022-09-16T17:56:32.324Z,1.70
2022-09-16T17:58:59.941Z,2.10
2022-09-16T18:01:28.211Z,1.83
2022-09-16T18:03:59.814Z,1.60
2022-09-16T18:06:35.664Z,1.67
2022-09-16T18:09:05.328Z,2.20
2022-09-16T18:11:33.307Z,1.60
2022-09-16T18:14:02.863Z,1.83
2022-09-16T18:16:31.091Z,3.00
2022-09-16T18:19:00.601Z,2.20
2022-09-16T18:21:28.716Z,2.30
2022-09-16T18:23:58.820Z,1.90
2022-09-16T18:26:27.471Z,2.00
2022-09-16T18:29:18.006Z,1.80
2022-09-16T18:31:46.492Z,2.00
2022-09-16T18:34:15.893Z,1.90
2022-09-16T18:36:43.669Z,2.10
2022-09-16T18:39:14.617Z,1.83
2022-09-16T18:41:44.155Z,2.10
2022-09-16T18:44:17.483Z,2.20
2022-09-16T18:46:45.181Z,2.00
2022-09-16T18:49:14.775Z,2.23
2022-09-16T18:51:50.527Z,2.20
2022-09-16T18:54:27.874Z,2.30
2022-09-16T18:56:57.157Z,2.53
2022-09-16T18:59:28.265Z,2.40
2022-09-16T19:02:02.635Z,2.10
2022-09-16T19:04:32.927Z,2.30
2022-09-16T19:07:07.261Z,1.90
2022-09-16T19:09:37.423Z,2.00
2022-09-16T19:12:05.553Z,2.00
2022-09-16T19:14:33.024Z,1.57
2022-09-16T19:17:00.600Z,1.70
2022-09-16T19:19:27.989Z,1.70
2022-09-16T19:21:55.604Z,1.90
2022-09-16T19:24:24.487Z,1.40
2022-09-16T19:26:53.917Z,1.80
2022-09-16T19:29:21.823Z,1.77
2022-09-16T19:31:52.039Z,1.80
2022-09-16T19:34:20.171Z,1.73
2022-09-16T19:36:47.897Z,1.50
2022-09-16T19:39:15.424Z,1.53
2022-09-16T19:41:43.182Z,1.50
2022-09-16T19:44:14.237Z,1.40
2022-09-16T19:46:46.752Z,1.63
2022-09-16T19:49:17.350Z,1.40
2022-09-16T19:51:45.369Z,1.50
2022-09-16T19:54:13.557Z,1.40
2022-09-16T19:56:41.245Z,1.50
2022-09-16T19:59:09.140Z,1.60
2022-09-16T20:01:37.420Z,1.43
2022-09-16T20:04:07.640Z,1.60
2022-09-16T20:06:40.584Z,1.53
2022-09-16T20:09:13.772Z,1.40
2022-09-16T20:11:44.663Z,1.60
2022-09-16T20:14:19.019Z,1.60
2022-09-16T20:16:47.174Z,1.50
2022-09-16T20:19:17.053Z,1.60
2022-09-16T20:21:44.582Z,1.60
2022-09-16T20:24:18.455Z,1.80
2022-09-16T20:26:47.189Z,1.60
2022-09-16T20:29:17.356Z,1.70
2022-09-16T20:31:45.802Z,1.73
2022-09-16T20:34:16.063Z,1.70
2022-09-16T20:36:45.401Z,1.50
2022-09-16T20:39:13.354Z,1.73
2022-09-16T20:41:41.613Z,1.70
2022-09-16T20:44:15.900Z,1.80
2022-09-16T20:46:43.819Z,1.87
2022-09-16T20:49:15.825Z,1.43
2022-09-16T20:51:43.666Z,1.50
2022-09-16T20:54:13.799Z,1.80
2022-09-16T20:56:43.362Z,1.43
2022-09-16T20:59:13.392Z,1.60
2022-09-16T21:01:41.835Z,1.80
2022-09-16T21:04:13.804Z,1.70
2022-09-16T21:06:41.502Z,1.50
2022-09-16T21:09:12.664Z,1.43
2022-09-16T21:11:44.451Z,1.60
2022-09-16T21:14:15.184Z,1.80
2022-09-16T21:16:43.821Z,1.60
2022-09-16T21:19:13.320Z,1.77
2022-09-16T21:21:44.250Z,1.67
2022-09-16T21:24:12.101Z,1.67
2022-09-16T21:26:41.141Z,1.70
2022-09-16T21:29:20.815Z,1.30
2022-09-16T21:31:49.056Z,1.30
2022-09-16T21:34:19.467Z,1.53
2022-09-16T21:36:47.605Z,1.50
2022-09-16T21:39:16.818Z,1.43
2022-09-16T21:41:45.637Z,1.60
2022-09-16T21:44:13.954Z,1.57
2022-09-16T21:46:45.288Z,1.30
2022-09-16T21:49:22.340Z,1.30
2022-09-16T21:51:50.703Z,1.27
2022-09-16T21:54:20.341Z,1.30
2022-09-16T21:56:49.016Z,1.30
2022-09-16T21:59:17.307Z,1.50
2022-09-16T22:01:44.912Z,1.07
2022-09-16T22:04:17.775Z,1.30
2022-09-16T22:06:45.698Z,1.53
2022-09-16T22:09:13.332Z,1.40
2022-09-16T22:11:41.870Z,1.30
2022-09-16T22:14:11.122Z,1.40
2022-09-16T22:16:39.369Z,1.20
2022-09-16T22:19:16.024Z,1.50
2022-09-16T22:21:45.614Z,1.37
2022-09-16T22:24:13.603Z,1.37
2022-09-16T22:26:41.337Z,1.40
2022-09-16T22:29:10.850Z,1.33
2022-09-16T22:31:41.359Z,1.50
2022-09-16T22:34:09.694Z,1.50
2022-09-16T22:36:38.011Z,1.70
2022-09-16T22:39:10.721Z,1.60
2022-09-16T22:41:38.274Z,1.40
2022-09-16T22:44:05.715Z,1.43
2022-09-16T22:46:38.755Z,1.87
2022-09-16T22:49:06.090Z,1.60
2022-09-16T22:51:33.465Z,1.70
2022-09-16T22:54:00.809Z,1.50
2022-09-16T22:56:32.202Z,1.40
2022-09-16T22:59:01.950Z,1.73
2022-09-16T23:01:39.118Z,1.57
2022-09-16T23:04:08.451Z,1.53
2022-09-16T23:06:37.277Z,1.60
2022-09-16T23:09:06.671Z,1.57
2022-09-16T23:11:35.490Z,1.90
2022-09-16T23:14:04.112Z,1.67
2022-09-16T23:16:34.291Z,1.50
2022-09-16T23:19:05.597Z,1.70
2022-09-16T23:21:33.554Z,1.60
2022-09-16T23:24:04.335Z,1.60
2022-09-16T23:26:36.330Z,1.80
2022-09-16T23:29:06.576Z,2.03
2022-09-16T23:31:38.138Z,1.70
2022-09-16T23:34:07.876Z,1.70
2022-09-16T23:36:37.455Z,1.50
2022-09-16T23:39:08.241Z,1.77
2022-09-16T23:41:36.042Z,1.90
2022-09-16T23:44:03.418Z,1.50
2022-09-16T23:46:31.185Z,1.83
2022-09-16T23:48:59.414Z,1.70
2022-09-16T23:51:28.957Z,1.70
2022-09-16T23:53:57.318Z,1.57
2022-09-16T23:56:25.384Z,1.63
2022-09-16T23:58:52.964Z,1.70
